Time,TemperatureF,DewpointF,PressureIn,WindDirection,WindDirectionDegrees,WindSpeedMPH,WindSpeedGustMPH,Humidity,HourlyPrecipIn,Conditions,Clouds,dailyrainin,SolarRadiationWatts/m^2,SoftwareType,DateUTC
2013-12-18 00:05:00,61.3,57.7,30.07,SW,219,0.0,0.0,88,0.00,,,0.00,0,Wunderground v.1.15,2013-12-18 05:05:00,
2013-12-18 00:10:00,61.2,57.6,30.07,SW,217,0.0,0.0,88,0.00,,,0.00,0,Wunderground v.1.15,2013-12-18 05:10:00,
2013-12-18 00:15:00,61.2,57.6,30.06,SW,217,0.0,0.0,88,0.00,,,0.00,0,Wunderground v.1.15,2013-12-18 05:15:00,
2013-12-18 00:21:00,61.2,57.6,30.06,SW,217,0.0,0.0,88,0.00,,,0.00,0,Wunderground v.1.15,2013-12-18 05:21:00,
2013-12-18 00:26:00,61.0,57.4,30.06,SW,217,0.0,0.0,88,0.00,,,0.00,0,Wunderground v.1.15,2013-12-18 05:26:00,
2013-12-18 00:31:00,61.0,57.4,30.06,SW,217,0.0,0.0,88,0.00,,,0.00,0,Wunderground v.1.15,2013-12-18 05:31:00,
2013-12-18 00:36:00,60.9,57.3,30.06,SW,217,0.0,0.0,88,0.00,,,0.00,0,Wunderground v.1.15,2013-12-18 05:36:00,
2013-12-18 00:45:00,60.7,57.1,30.06,SW,217,0.0,0.0,88,0.00,,,0.00,0,Wunderground v.1.15,2013-12-18 05:45:00,
2013-12-18 00:50:00,60.7,57.4,30.06,SW,217,0.0,0.0,89,0.00,,,0.00,0,Wunderground v.1.15,2013-12-18 05:50:00,
2013-12-18 00:55:00,60.7,57.4,30.06,SW,217,0.0,0.0,89,0.00,,,0.00,0,Wunderground v.1.15,2013-12-18 05:55:00,
2013-12-18 01:01:00,60.5,57.2,30.06,SW,217,0.0,0.0,89,0.00,,,0.00,0,Wunderground v.1.15,2013-12-18 06:01:00,
2013-12-18 01:10:00,60.4,57.1,30.06,SW,217,0.0,0.0,89,0.00,,,0.00,0,Wunderground v.1.15,2013-12-18 06:10:00,
2013-12-18 01:16:00,60.2,56.9,30.06,SW,217,0.0,0.0,89,0.00,,,0.00,0,Wunderground v.1.15,2013-12-18 06:16:00,
2013-12-18 01:21:00,60.1,56.8,30.06,SW,217,0.0,0.0,89,0.00,,,0.00,0,Wunderground v.1.15,2013-12-18 06:21:00,
2013-12-18 01:26:00,60.1,56.8,30.06,SW,217,0.0,0.0,89,0.00,,,0.00,0,Wunderground v.1.15,2013-12-18 06:26:00,
2013-12-18 01:31:00,59.9,56.6,30.05,SW,217,0.0,0.0,89,0.00,,,0.00,0,Wunderground v.1.15,2013-12-18 06:31:00,
2013-12-18 01:36:00,59.9,56.6,30.05,SW,219,0.0,0.0,89,0.00,,,0.00,0,Wunderground v.1.15,2013-12-18 06:36:00,
2013-12-18 01:45:00,59.8,56.6,30.06,SW,217,0.0,0.0,89,0.00,,,0.00,0,Wunderground v.1.15,2013-12-18 06:45:00,
2013-12-18 01:51:00,59.6,56.4,30.06,SW,217,0.0,0.0,89,0.00,,,0.00,0,Wunderground v.1.15,2013-12-18 06:51:00,
2013-12-18 01:56:00,59.6,56.7,30.06,SW,217,0.0,0.0,90,0.00,,,0.00,0,Wunderground v.1.15,2013-12-18 06:56:00,
2013-12-18 02:01:00,59.5,56.6,30.06,SW,217,0.0,0.0,90,0.00,,,0.00,0,Wunderground v.1.15,2013-12-18 07:01:00,
2013-12-18 02:10:00,59.5,56.6,30.06,SW,217,0.0,0.0,90,0.00,,,0.00,0,Wunderground v.1.15,2013-12-18 07:10:00,
2013-12-18 02:15:00,59.5,56.6,30.06,SW,217,0.0,0.0,90,0.00,,,0.00,0,Wunderground v.1.15,2013-12-18 07:15:00,
2013-12-18 02:20:00,59.5,56.9,30.06,SSW,212,0.0,0.0,91,0.00,,,0.00,0,Wunderground v.1.15,2013-12-18 07:20:00,
2013-12-18 02:25:00,59.5,56.9,30.06,SW,217,0.0,0.0,91,0.00,,,0.00,0,Wunderground v.1.15,2013-12-18 07:25:00,
2013-12-18 02:30:00,59.5,56.9,30.06,SW,217,0.0,0.0,91,0.00,,,0.00,0,Wunderground v.1.15,2013-12-18 07:30:00,
2013-12-18 02:35:00,59.5,56.9,30.06,SW,219,0.0,0.0,91,0.00,,,0.00,0,Wunderground v.1.15,2013-12-18 07:35:00,
2013-12-18 02:41:00,59.3,56.7,30.06,SW,217,0.0,0.0,91,0.00,,,0.00,0,Wunderground v.1.15,2013-12-18 07:41:00,
2013-12-18 02:46:00,59.5,56.9,30.06,SW,217,0.0,0.0,91,0.00,,,0.00,0,Wunderground v.1.15,2013-12-18 07:46:00,
2013-12-18 02:51:00,59.3,56.7,30.06,SW,217,0.0,0.0,91,0.00,,,0.00,0,Wunderground v.1.15,2013-12-18 07:51:00,
2013-12-18 02:56:00,59.3,56.7,30.06,SW,217,0.0,0.0,91,0.00,,,0.00,0,Wunderground v.1.15,2013-12-18 07:56:00,
2013-12-18 03:01:00,59.2,56.9,30.06,SW,217,0.0,0.0,92,0.00,,,0.00,0,Wunderground v.1.15,2013-12-18 08:01:00,
2013-12-18 03:11:00,59.2,56.9,30.06,SW,217,0.0,0.0,92,0.00,,,0.00,0,Wunderground v.1.15,2013-12-18 08:11:00,
2013-12-18 03:16:00,59.0,56.7,30.06,SW,217,0.0,0.0,92,0.00,,,0.00,0,Wunderground v.1.15,2013-12-18 08:16:00,
2013-12-18 03:25:00,58.9,56.6,30.06,SW,217,0.0,0.0,92,0.00,,,0.00,0,Wunderground v.1.15,2013-12-18 08:25:00,
2013-12-18 03:30:00,58.9,56.6,30.06,SW,217,0.0,0.0,92,0.00,,,0.00,0,Wunderground v.1.15,2013-12-18 08:30:00,
2013-12-18 03:36:00,58.7,56.4,30.06,SW,217,0.0,0.0,92,0.00,,,0.00,0,Wunderground v.1.15,2013-12-18 08:36:00,
2013-12-18 03:41:00,58.7,56.4,30.06,SW,217,0.0,0.0,92,0.00,,,0.00,0,Wunderground v.1.15,2013-12-18 08:41:00,
2013-12-18 03:46:00,58.6,56.3,30.06,SW,217,0.0,0.0,92,0.00,,,0.00,0,Wunderground v.1.15,2013-12-18 08:46:00,
2013-12-18 03:51:00,58.6,56.3,30.06,SW,219,0.0,0.0,92,0.00,,,0.00,0,Wunderground v.1.15,2013-12-18 08:51:00,
2013-12-18 04:01:00,58.4,56.1,30.07,SW,217,0.0,0.0,92,0.00,,,0.00,0,Wunderground v.1.15,2013-12-18 09:01:00,
2013-12-18 04:11:00,58.4,56.1,30.07,SW,217,0.0,0.0,92,0.00,,,0.00,0,Wunderground v.1.15,2013-12-18 09:11:00,
2013-12-18 04:16:00,58.6,56.3,30.07,SW,217,0.0,0.0,92,0.00,,,0.00,0,Wunderground v.1.15,2013-12-18 09:16:00,
2013-12-18 04:25:00,58.6,56.6,30.07,SW,217,0.0,0.0,93,0.00,,,0.00,0,Wunderground v.1.15,2013-12-18 09:25:00,
2013-12-18 04:30:00,58.6,56.6,30.07,SW,217,0.0,0.0,93,0.00,,,0.00,0,Wunderground v.1.15,2013-12-18 09:30:00,
2013-12-18 04:36:00,58.6,56.6,30.07,SW,217,0.0,0.0,93,0.00,,,0.00,0,Wunderground v.1.15,2013-12-18 09:36:00,
2013-12-18 04:41:00,58.6,56.6,30.07,SW,217,0.0,0.0,93,0.00,,,0.00,0,Wunderground v.1.15,2013-12-18 09:41:00,
2013-12-18 04:46:00,58.6,56.6,30.07,SW,217,0.0,0.0,93,0.00,,,0.00,0,Wunderground v.1.15,2013-12-18 09:46:00,
2013-12-18 04:51:00,58.7,56.7,30.07,SW,217,0.0,0.0,93,0.00,,,0.00,0,Wunderground v.1.15,2013-12-18 09:51:00,
2013-12-18 05:01:00,58.7,56.7,30.07,SW,217,0.0,0.0,93,0.00,,,0.00,0,Wunderground v.1.15,2013-12-18 10:01:00,
2013-12-18 05:11:00,58.6,56.6,30.07,SW,217,0.0,0.0,93,0.00,,,0.00,0,Wunderground v.1.15,2013-12-18 10:11:00,
2013-12-18 05:16:00,58.6,56.6,30.07,SW,217,0.0,0.0,93,0.00,,,0.00,0,Wunderground v.1.15,2013-12-18 10:16:00,
2013-12-18 05:21:00,58.6,56.9,30.07,SW,217,0.0,0.0,94,0.00,,,0.00,0,Wunderground v.1.15,2013-12-18 10:21:00,
2013-12-18 05:26:00,58.6,56.9,30.07,SW,217,0.0,0.0,94,0.00,,,0.00,0,Wunderground v.1.15,2013-12-18 10:26:00,
2013-12-18 05:35:00,58.7,57.0,30.07,SW,217,0.0,0.0,94,0.00,,,0.00,0,Wunderground v.1.15,2013-12-18 10:35:00,
2013-12-18 05:40:00,58.7,57.0,30.07,SW,217,0.0,0.0,94,0.00,,,0.00,0,Wunderground v.1.15,2013-12-18 10:40:00,
2013-12-18 05:46:00,58.7,57.0,30.08,SW,217,0.0,0.0,94,0.00,,,0.00,0,Wunderground v.1.15,2013-12-18 10:46:00,
2013-12-18 05:51:00,58.7,57.0,30.08,SW,217,0.0,0.0,94,0.00,,,0.00,0,Wunderground v.1.15,2013-12-18 10:51:00,
2013-12-18 05:56:00,58.9,57.2,30.08,SW,215,0.0,0.0,94,0.00,,,0.00,0,Wunderground v.1.15,2013-12-18 10:56:00,
2013-12-18 06:05:00,59.0,57.3,30.09,SE,136,0.0,0.0,94,0.00,,,0.00,0,Wunderground v.1.15,2013-12-18 11:05:00,
2013-12-18 06:10:00,59.0,57.3,30.09,SE,141,0.0,0.0,94,0.00,,,0.00,0,Wunderground v.1.15,2013-12-18 11:10:00,
2013-12-18 06:16:00,59.0,57.3,30.09,SE,141,0.0,0.0,94,0.00,,,0.00,0,Wunderground v.1.15,2013-12-18 11:16:00,
2013-12-18 06:21:00,59.0,57.3,30.09,SE,141,0.0,0.0,94,0.00,,,0.00,0,Wunderground v.1.15,2013-12-18 11:21:00,
2013-12-18 06:26:00,59.0,57.6,30.09,SE,141,0.0,0.0,95,0.00,,,0.01,0,Wunderground v.1.15,2013-12-18 11:26:00,
2013-12-18 06:31:00,59.0,57.3,30.10,SE,141,0.0,0.0,94,0.00,,,0.01,0,Wunderground v.1.15,2013-12-18 11:31:00,
2013-12-18 06:35:00,59.0,57.6,30.10,SE,141,0.0,0.0,95,0.00,,,0.01,0,Wunderground v.1.15,2013-12-18 11:35:00,
2013-12-18 06:40:00,59.0,57.6,30.10,SE,141,0.0,0.0,95,0.00,,,0.01,0,Wunderground v.1.15,2013-12-18 11:40:00,
2013-12-18 06:45:00,59.0,57.6,30.10,SE,141,0.0,0.0,95,0.00,,,0.01,0,Wunderground v.1.15,2013-12-18 11:45:00,
2013-12-18 06:50:00,59.0,57.6,30.10,SE,141,0.0,0.0,95,0.00,,,0.01,0,Wunderground v.1.15,2013-12-18 11:50:00,
2013-12-18 06:56:00,59.0,57.6,30.10,SE,136,0.0,0.0,95,0.00,,,0.01,0,Wunderground v.1.15,2013-12-18 11:56:00,
2013-12-18 07:01:00,59.0,57.6,30.10,SE,141,0.0,0.0,95,0.00,,,0.01,0,Wunderground v.1.15,2013-12-18 12:01:00,
2013-12-18 07:10:00,59.0,57.6,30.10,SE,141,0.0,0.0,95,0.00,,,0.01,0,Wunderground v.1.15,2013-12-18 12:10:00,
2013-12-18 07:16:00,59.0,57.6,30.11,SE,141,0.0,0.0,95,0.00,,,0.01,5,Wunderground v.1.15,2013-12-18 12:16:00,
2013-12-18 07:20:00,59.2,57.8,30.11,SE,136,0.0,0.0,95,0.00,,,0.01,30,Wunderground v.1.15,2013-12-18 12:20:00,
2013-12-18 07:26:00,59.5,58.1,30.11,SE,141,0.0,0.0,95,0.00,,,0.01,46,Wunderground v.1.15,2013-12-18 12:26:00,
2013-12-18 07:31:00,59.8,58.4,30.11,SE,141,0.0,0.0,95,0.00,,,0.01,67,Wunderground v.1.15,2013-12-18 12:31:00,
2013-12-18 07:36:00,59.9,58.5,30.11,SE,141,0.0,0.0,95,0.00,,,0.01,63,Wunderground v.1.15,2013-12-18 12:36:00,
2013-12-18 07:41:00,60.1,58.7,30.11,SSW,192,0.0,0.0,95,0.00,,,0.01,53,Wunderground v.1.15,2013-12-18 12:41:00,
2013-12-18 07:50:00,60.4,59.0,30.12,SSW,192,0.0,0.0,95,0.00,,,0.01,30,Wunderground v.1.15,2013-12-18 12:50:00,
2013-12-18 07:55:00,60.5,59.1,30.12,SSW,192,0.0,0.0,95,0.00,,,0.01,23,Wunderground v.1.15,2013-12-18 12:55:00,
2013-12-18 08:06:00,60.5,59.1,30.12,SSE,151,0.0,0.0,95,0.00,,,0.01,25,Wunderground v.1.15,2013-12-18 13:06:00,
2013-12-18 08:11:00,60.5,59.1,30.12,SSW,209,0.0,5.0,95,0.00,,,0.01,26,Wunderground v.1.15,2013-12-18 13:11:00,
2013-12-18 08:16:00,60.5,59.1,30.13,SE,140,0.0,5.0,95,0.00,,,0.01,28,Wunderground v.1.15,2013-12-18 13:16:00,
2013-12-18 08:21:00,60.7,59.3,30.13,SSW,206,0.0,0.0,95,0.00,,,0.01,30,Wunderground v.1.15,2013-12-18 13:21:00,
2013-12-18 08:30:00,60.9,59.5,30.13,SSE,151,0.0,0.0,95,0.00,,,0.01,30,Wunderground v.1.15,2013-12-18 13:30:00,
2013-12-18 08:35:00,61.2,59.8,30.13,SW,215,0.0,0.0,95,0.00,,,0.01,49,Wunderground v.1.15,2013-12-18 13:35:00,
2013-12-18 08:41:00,61.3,59.9,30.13,SE,143,0.0,0.0,95,0.00,,,0.01,77,Wunderground v.1.15,2013-12-18 13:41:00,
2013-12-18 08:46:00,61.6,60.2,30.13,SW,217,0.0,0.0,95,0.00,,,0.01,181,Wunderground v.1.15,2013-12-18 13:46:00,
2013-12-18 08:51:00,62.0,60.6,30.13,SSW,208,1.0,1.0,95,0.00,,,0.01,202,Wunderground v.1.15,2013-12-18 13:51:00,
2013-12-18 08:56:00,62.3,60.6,30.13,SSW,199,0.0,2.0,94,0.00,,,0.01,102,Wunderground v.1.15,2013-12-18 13:56:00,
2013-12-18 09:01:00,63.4,61.6,30.13,SSW,199,0.0,0.0,94,0.00,,,0.01,294,Wunderground v.1.15,2013-12-18 14:01:00,
2013-12-18 09:11:00,65.2,60.9,30.13,South,175,1.0,1.0,86,0.00,,,0.01,326,Wunderground v.1.15,2013-12-18 14:11:00,
2013-12-18 09:16:00,65.8,60.2,30.14,SSW,203,1.0,1.0,82,0.00,,,0.01,343,Wunderground v.1.15,2013-12-18 14:16:00,
2013-12-18 09:25:00,67.4,59.6,30.14,SSE,160,1.0,3.0,76,0.00,,,0.01,375,Wunderground v.1.15,2013-12-18 14:25:00,
2013-12-18 09:30:00,68.1,59.1,30.14,SSW,202,1.0,1.0,73,0.00,,,0.01,387,Wunderground v.1.15,2013-12-18 14:30:00,
2013-12-18 09:36:00,68.8,59.4,30.14,SSW,196,1.0,1.0,72,0.00,,,0.01,405,Wunderground v.1.15,2013-12-18 14:36:00,
2013-12-18 09:41:00,69.4,59.6,30.14,SSE,152,1.0,1.0,71,0.00,,,0.01,412,Wunderground v.1.15,2013-12-18 14:41:00,
2013-12-18 09:46:00,69.6,59.0,30.15,SSW,198,1.0,1.0,69,0.00,,,0.01,428,Wunderground v.1.15,2013-12-18 14:46:00,
2013-12-18 09:51:00,70.3,59.2,30.15,SSE,165,1.0,1.0,68,0.00,,,0.01,440,Wunderground v.1.15,2013-12-18 14:51:00,
2013-12-18 09:56:00,70.3,57.5,30.15,SE,133,1.0,1.0,64,0.00,,,0.01,450,Wunderground v.1.15,2013-12-18 14:56:00,
2013-12-18 10:01:00,70.6,57.4,30.15,South,175,2.0,2.0,63,0.00,,,0.01,459,Wunderground v.1.15,2013-12-18 15:01:00,
2013-12-18 10:11:00,71.3,57.2,30.15,South,189,2.0,2.0,61,0.00,,,0.01,479,Wunderground v.1.15,2013-12-18 15:11:00,
2013-12-18 10:20:00,72.1,57.9,30.15,SE,136,1.0,6.0,61,0.00,,,0.01,496,Wunderground v.1.15,2013-12-18 15:20:00,
2013-12-18 10:25:00,72.3,57.2,30.15,SW,226,2.0,6.0,59,0.00,,,0.01,507,Wunderground v.1.15,2013-12-18 15:25:00,
2013-12-18 10:30:00,72.5,56.4,30.15,SSW,192,2.0,5.0,57,0.00,,,0.01,516,Wunderground v.1.15,2013-12-18 15:30:00,
2013-12-18 10:36:00,72.5,55.9,30.15,SSW,205,3.0,5.0,56,0.00,,,0.01,526,Wunderground v.1.15,2013-12-18 15:36:00,
2013-12-18 10:41:00,72.7,56.1,30.15,SSW,209,3.0,5.0,56,0.00,,,0.01,533,Wunderground v.1.15,2013-12-18 15:41:00,
2013-12-18 10:46:00,72.8,54.1,30.15,SW,223,3.0,5.0,52,0.00,,,0.01,540,Wunderground v.1.15,2013-12-18 15:46:00,
2013-12-18 10:51:00,73.2,55.0,30.15,SSW,192,3.0,3.0,53,0.00,,,0.01,545,Wunderground v.1.15,2013-12-18 15:51:00,
2013-12-18 10:56:00,73.5,55.3,30.15,SSW,203,2.0,5.0,53,0.00,,,0.01,552,Wunderground v.1.15,2013-12-18 15:56:00,
2013-12-18 11:01:00,73.7,55.0,30.15,SW,232,2.0,2.0,52,0.00,,,0.01,558,Wunderground v.1.15,2013-12-18 16:01:00,
2013-12-18 11:11:00,74.2,56.0,30.15,SW,226,2.0,5.0,53,0.00,,,0.01,570,Wunderground v.1.15,2013-12-18 16:11:00,
2013-12-18 11:16:00,74.4,55.1,30.14,SSW,208,2.0,5.0,51,0.00,,,0.01,575,Wunderground v.1.15,2013-12-18 16:16:00,
2013-12-18 11:25:00,74.7,54.8,30.14,SE,141,2.0,3.0,50,0.00,,,0.01,586,Wunderground v.1.15,2013-12-18 16:25:00,
2013-12-18 11:30:00,74.9,55.0,30.14,SSW,203,3.0,5.0,50,0.00,,,0.01,589,Wunderground v.1.15,2013-12-18 16:30:00,
2013-12-18 11:35:00,74.9,55.6,30.14,SSW,208,2.0,5.0,51,0.00,,,0.01,593,Wunderground v.1.15,2013-12-18 16:35:00,
2013-12-18 11:41:00,75.4,54.9,30.14,SE,137,2.0,2.0,49,0.00,,,0.01,596,Wunderground v.1.15,2013-12-18 16:41:00,
2013-12-18 11:46:00,75.8,55.3,30.13,SW,217,2.0,2.0,49,0.00,,,0.01,600,Wunderground v.1.15,2013-12-18 16:46:00,
2013-12-18 11:51:00,76.3,55.7,30.13,South,182,1.0,2.0,49,0.00,,,0.01,604,Wunderground v.1.15,2013-12-18 16:51:00,
2013-12-18 12:01:00,76.1,56.1,30.13,SW,232,2.0,2.0,50,0.00,,,0.01,607,Wunderground v.1.15,2013-12-18 17:01:00,
2013-12-18 12:11:00,76.7,56.1,30.13,SSE,148,2.0,5.0,49,0.00,,,0.01,611,Wunderground v.1.15,2013-12-18 17:11:00,
2013-12-18 12:16:00,77.0,56.4,30.11,SE,140,3.0,5.0,49,0.00,,,0.01,612,Wunderground v.1.15,2013-12-18 17:16:00,
2013-12-18 12:25:00,77.6,56.4,30.11,SSE,164,2.0,6.0,48,0.00,,,0.01,612,Wunderground v.1.15,2013-12-18 17:25:00,
2013-12-18 12:30:00,77.2,57.1,30.11,SW,227,2.0,3.0,50,0.00,,,0.01,609,Wunderground v.1.15,2013-12-18 17:30:00,
2013-12-18 12:36:00,77.6,57.5,30.11,SE,144,2.0,3.0,50,0.00,,,0.01,609,Wunderground v.1.15,2013-12-18 17:36:00,
2013-12-18 12:45:00,78.3,57.6,30.10,SSW,209,1.0,2.0,49,0.00,,,0.01,605,Wunderground v.1.15,2013-12-18 17:45:00,
2013-12-18 12:50:00,78.1,57.9,30.10,SSW,206,1.0,2.0,50,0.00,,,0.01,604,Wunderground v.1.15,2013-12-18 17:50:00,
2013-12-18 12:56:00,78.3,58.1,30.10,SSW,195,1.0,2.0,50,0.00,,,0.01,596,Wunderground v.1.15,2013-12-18 17:56:00,
2013-12-18 13:01:00,78.8,58.0,30.09,SE,127,1.0,1.0,49,0.00,,,0.01,596,Wunderground v.1.15,2013-12-18 18:01:00,
2013-12-18 13:10:00,79.0,57.6,30.09,ESE,123,1.0,1.0,48,0.00,,,0.01,589,Wunderground v.1.15,2013-12-18 18:10:00,
2013-12-18 13:15:00,79.0,58.2,30.09,SSE,154,2.0,2.0,49,0.00,,,0.01,586,Wunderground v.1.15,2013-12-18 18:15:00,
2013-12-18 13:21:00,78.6,57.3,30.09,SSE,167,2.0,2.0,48,0.00,,,0.01,581,Wunderground v.1.15,2013-12-18 18:21:00,
2013-12-18 13:26:00,78.8,57.4,30.09,SW,222,2.0,2.0,48,0.00,,,0.01,575,Wunderground v.1.15,2013-12-18 18:26:00,
2013-12-18 13:31:00,78.6,57.3,30.08,SW,227,2.0,3.0,48,0.00,,,0.01,567,Wunderground v.1.15,2013-12-18 18:31:00,
2013-12-18 13:36:00,78.5,57.7,30.08,South,191,2.0,5.0,49,0.00,,,0.01,561,Wunderground v.1.15,2013-12-18 18:36:00,
2013-12-18 13:45:00,78.6,57.8,30.08,SSW,208,1.0,3.0,49,0.00,,,0.01,547,Wunderground v.1.15,2013-12-18 18:45:00,
2013-12-18 13:50:00,79.6,57.6,30.08,SSW,196,1.0,1.0,47,0.00,,,0.01,540,Wunderground v.1.15,2013-12-18 18:50:00,
2013-12-18 13:55:00,79.8,57.8,30.08,SSE,164,1.0,2.0,47,0.00,,,0.01,535,Wunderground v.1.15,2013-12-18 18:55:00,
2013-12-18 14:01:00,79.6,57.6,30.07,SSW,202,2.0,2.0,47,0.00,,,0.01,526,Wunderground v.1.15,2013-12-18 19:01:00,
2013-12-18 14:10:00,79.4,57.4,30.07,SSW,200,1.0,1.0,47,0.00,,,0.01,512,Wunderground v.1.15,2013-12-18 19:10:00,
2013-12-18 14:15:00,79.6,57.0,30.07,SSW,199,1.0,1.0,46,0.00,,,0.01,503,Wunderground v.1.15,2013-12-18 19:15:00,
2013-12-18 14:21:00,79.6,57.6,30.07,SSW,202,1.0,2.0,47,0.00,,,0.01,493,Wunderground v.1.15,2013-12-18 19:21:00,
2013-12-18 14:26:00,79.6,57.6,30.07,SSW,202,2.0,2.0,47,0.00,,,0.01,480,Wunderground v.1.15,2013-12-18 19:26:00,
2013-12-18 14:31:00,79.4,58.6,30.07,SW,220,2.0,3.0,49,0.00,,,0.01,470,Wunderground v.1.15,2013-12-18 19:31:00,
2013-12-18 14:36:00,79.4,58.0,30.07,SSW,209,2.0,3.0,48,0.00,,,0.01,457,Wunderground v.1.15,2013-12-18 19:36:00,
2013-12-18 14:41:00,79.6,58.2,30.07,SSW,200,2.0,2.0,48,0.00,,,0.01,449,Wunderground v.1.15,2013-12-18 19:41:00,
2013-12-18 14:46:00,79.6,57.6,30.06,SSW,206,1.0,3.0,47,0.00,,,0.01,438,Wunderground v.1.15,2013-12-18 19:46:00,
2013-12-18 14:55:00,79.8,58.4,30.06,SSW,198,2.0,2.0,48,0.00,,,0.01,421,Wunderground v.1.15,2013-12-18 19:55:00,
2013-12-18 15:01:00,79.9,57.9,30.06,SSE,155,1.0,1.0,47,0.00,,,0.01,424,Wunderground v.1.15,2013-12-18 20:01:00,
2013-12-18 15:11:00,79.8,57.8,30.06,SSW,209,2.0,7.0,47,0.00,,,0.01,378,Wunderground v.1.15,2013-12-18 20:11:00,
2013-12-18 15:20:00,79.2,57.8,30.06,SW,217,2.0,2.0,48,0.00,,,0.01,366,Wunderground v.1.15,2013-12-18 20:20:00,
2013-12-18 15:26:00,79.2,58.4,30.06,SW,219,2.0,2.0,49,0.00,,,0.01,366,Wunderground v.1.15,2013-12-18 20:26:00,
2013-12-18 15:31:00,79.2,58.4,30.07,WSW,239,1.0,1.0,49,0.00,,,0.01,303,Wunderground v.1.15,2013-12-18 20:31:00,
2013-12-18 15:36:00,78.8,58.6,30.07,SSW,206,2.0,4.0,50,0.00,,,0.01,326,Wunderground v.1.15,2013-12-18 20:36:00,
2013-12-18 15:41:00,78.5,58.3,30.07,West,277,2.0,3.0,50,0.00,,,0.01,311,Wunderground v.1.15,2013-12-18 20:41:00,
2013-12-18 15:46:00,78.1,58.5,30.07,West,277,2.0,3.0,51,0.00,,,0.01,280,Wunderground v.1.15,2013-12-18 20:46:00,
2013-12-18 15:55:00,77.7,58.1,30.07,South,189,1.0,2.0,51,0.00,,,0.01,264,Wunderground v.1.15,2013-12-18 20:55:00,
2013-12-18 16:01:00,77.6,58.0,30.07,SW,216,2.0,2.0,51,0.00,,,0.01,245,Wunderground v.1.15,2013-12-18 21:01:00,
2013-12-18 16:11:00,77.4,58.4,30.07,SSW,205,2.0,2.0,52,0.00,,,0.01,220,Wunderground v.1.15,2013-12-18 21:11:00,
2013-12-18 16:20:00,77.0,58.6,30.07,SSW,208,1.0,1.0,53,0.00,,,0.01,190,Wunderground v.1.15,2013-12-18 21:20:00,
2013-12-18 16:25:00,76.8,58.4,30.07,SW,220,1.0,2.0,53,0.00,,,0.01,169,Wunderground v.1.15,2013-12-18 21:25:00,
2013-12-18 16:31:00,76.3,58.4,30.08,SSW,202,2.0,3.0,54,0.00,,,0.01,157,Wunderground v.1.15,2013-12-18 21:31:00,
2013-12-18 16:36:00,76.0,58.7,30.08,SSW,203,2.0,3.0,55,0.00,,,0.01,146,Wunderground v.1.15,2013-12-18 21:36:00,
2013-12-18 16:41:00,75.6,58.3,30.08,WSW,237,2.0,2.0,55,0.00,,,0.01,135,Wunderground v.1.15,2013-12-18 21:41:00,
2013-12-18 16:46:00,75.3,58.5,30.08,WSW,243,2.0,2.0,56,0.00,,,0.01,118,Wunderground v.1.15,2013-12-18 21:46:00,
2013-12-18 16:55:00,74.7,58.5,30.08,SSW,213,1.0,5.0,57,0.00,,,0.01,90,Wunderground v.1.15,2013-12-18 21:55:00,
2013-12-18 17:01:00,74.4,58.7,30.08,SW,217,1.0,4.0,58,0.00,,,0.01,69,Wunderground v.1.15,2013-12-18 22:01:00,
2013-12-18 17:10:00,73.7,58.5,30.08,SSW,209,2.0,2.0,59,0.00,,,0.01,33,Wunderground v.1.15,2013-12-18 22:10:00,
2013-12-18 17:15:00,73.3,58.1,30.08,SSW,202,1.0,5.0,59,0.00,,,0.01,18,Wunderground v.1.15,2013-12-18 22:15:00,
2013-12-18 17:20:00,73.0,58.3,30.08,SSW,205,1.0,1.0,60,0.00,,,0.01,16,Wunderground v.1.15,2013-12-18 22:20:00,
2013-12-18 17:25:00,72.7,58.0,30.08,SSW,203,1.0,2.0,60,0.00,,,0.01,7,Wunderground v.1.15,2013-12-18 22:25:00,
2013-12-18 17:31:00,72.3,58.1,30.09,SSW,206,1.0,1.0,61,0.00,,,0.01,5,Wunderground v.1.15,2013-12-18 22:31:00,
2013-12-18 17:36:00,72.1,57.9,30.09,SW,227,1.0,1.0,61,0.00,,,0.01,0,Wunderground v.1.15,2013-12-18 22:36:00,
2013-12-18 17:41:00,72.0,57.8,30.09,South,186,0.0,0.0,61,0.00,,,0.01,0,Wunderground v.1.15,2013-12-18 22:41:00,
2013-12-18 17:50:00,71.5,57.8,30.09,SSW,198,0.0,0.0,62,0.00,,,0.01,0,Wunderground v.1.15,2013-12-18 22:50:00,
2013-12-18 17:55:00,71.1,57.4,30.09,SSW,198,0.0,0.0,62,0.00,,,0.01,0,Wunderground v.1.15,2013-12-18 22:55:00,
2013-12-18 18:01:00,70.9,57.7,30.10,SSW,198,0.0,0.0,63,0.00,,,0.01,0,Wunderground v.1.15,2013-12-18 23:01:00,
2013-12-18 18:10:00,70.4,57.2,30.10,SSW,192,0.0,0.0,63,0.00,,,0.01,0,Wunderground v.1.15,2013-12-18 23:10:00,
2013-12-18 18:15:00,70.3,57.1,30.10,SSW,193,0.0,0.0,63,0.00,,,0.01,0,Wunderground v.1.15,2013-12-18 23:15:00,
2013-12-18 18:21:00,70.1,57.4,30.10,South,189,0.0,5.0,64,0.00,,,0.01,0,Wunderground v.1.15,2013-12-18 23:21:00,
2013-12-18 18:26:00,69.9,57.2,30.10,SSW,192,0.0,5.0,64,0.00,,,0.01,0,Wunderground v.1.15,2013-12-18 23:26:00,
2013-12-18 18:31:00,69.8,57.1,30.10,SSW,195,0.0,0.0,64,0.00,,,0.01,0,Wunderground v.1.15,2013-12-18 23:31:00,
2013-12-18 18:36:00,69.6,56.9,30.10,SSW,195,0.0,0.0,64,0.00,,,0.01,0,Wunderground v.1.15,2013-12-18 23:36:00,
2013-12-18 18:41:00,69.4,57.1,30.10,SSW,195,0.0,0.0,65,0.00,,,0.01,0,Wunderground v.1.15,2013-12-18 23:41:00,
2013-12-18 18:50:00,68.9,56.6,30.10,SW,217,0.0,0.0,65,0.00,,,0.01,0,Wunderground v.1.15,2013-12-18 23:50:00,
2013-12-18 18:55:00,68.8,57.0,30.10,SW,215,0.0,0.0,66,0.00,,,0.01,0,Wunderground v.1.15,2013-12-18 23:55:00,
2013-12-18 19:01:00,68.4,56.6,30.11,SW,215,0.0,0.0,66,0.00,,,0.01,0,Wunderground v.1.15,2013-12-19 00:01:00,
2013-12-18 19:11:00,68.1,56.7,30.11,SSW,212,0.0,0.0,67,0.00,,,0.01,0,Wunderground v.1.15,2013-12-19 00:11:00,
2013-12-18 19:20:00,67.8,56.4,30.11,South,191,0.0,0.0,67,0.00,,,0.01,0,Wunderground v.1.15,2013-12-19 00:20:00,
2013-12-18 19:26:00,67.6,56.7,30.11,SSW,198,0.0,1.0,68,0.00,,,0.01,0,Wunderground v.1.15,2013-12-19 00:26:00,
2013-12-18 19:31:00,67.4,56.5,30.11,SSW,203,0.0,0.0,68,0.00,,,0.01,0,Wunderground v.1.15,2013-12-19 00:31:00,
2013-12-18 19:36:00,67.3,56.4,30.11,SW,219,0.0,0.0,68,0.00,,,0.01,0,Wunderground v.1.15,2013-12-19 00:36:00,
2013-12-18 19:41:00,67.1,56.2,30.11,SSW,203,1.0,1.0,68,0.00,,,0.01,0,Wunderground v.1.15,2013-12-19 00:41:00,
2013-12-18 19:46:00,66.9,56.0,30.12,SSW,205,1.0,2.0,68,0.00,,,0.01,0,Wunderground v.1.15,2013-12-19 00:46:00,
2013-12-18 19:55:00,66.8,55.9,30.12,SSW,209,0.0,0.0,68,0.00,,,0.01,0,Wunderground v.1.15,2013-12-19 00:55:00,
2013-12-18 20:01:00,66.6,55.7,30.12,SSW,209,0.0,0.0,68,0.00,,,0.01,0,Wunderground v.1.15,2013-12-19 01:01:00,
2013-12-18 20:11:00,66.4,55.5,30.12,SSW,208,0.0,0.0,68,0.00,,,0.01,0,Wunderground v.1.15,2013-12-19 01:11:00,
2013-12-18 20:21:00,66.1,55.6,30.13,SSW,208,0.0,0.0,69,0.00,,,0.01,0,Wunderground v.1.15,2013-12-19 01:21:00,
2013-12-18 20:30:00,65.8,55.3,30.13,SSW,206,0.0,0.0,69,0.00,,,0.01,0,Wunderground v.1.15,2013-12-19 01:30:00,
2013-12-18 20:36:00,65.6,55.5,30.13,SSW,206,0.0,0.0,70,0.00,,,0.01,0,Wunderground v.1.15,2013-12-19 01:36:00,
2013-12-18 20:41:00,65.6,55.5,30.13,SSW,206,0.0,0.0,70,0.00,,,0.01,0,Wunderground v.1.15,2013-12-19 01:41:00,
2013-12-18 20:46:00,65.5,55.8,30.13,SSW,206,0.0,0.0,71,0.00,,,0.01,0,Wunderground v.1.15,2013-12-19 01:46:00,
2013-12-18 20:55:00,65.0,55.8,30.13,SSW,206,0.0,0.0,72,0.00,,,0.01,0,Wunderground v.1.15,2013-12-19 01:55:00,
2013-12-18 21:06:00,64.7,55.8,30.13,SW,226,0.0,0.0,73,0.00,,,0.01,0,Wunderground v.1.15,2013-12-19 02:06:00,
2013-12-18 21:11:00,64.5,56.0,30.13,SW,215,0.0,0.0,74,0.00,,,0.01,0,Wunderground v.1.15,2013-12-19 02:11:00,
2013-12-18 21:16:00,64.3,56.2,30.14,SSW,213,0.0,0.0,75,0.00,,,0.01,0,Wunderground v.1.15,2013-12-19 02:16:00,
2013-12-18 21:21:00,64.2,56.1,30.14,SSW,213,0.0,0.0,75,0.00,,,0.01,0,Wunderground v.1.15,2013-12-19 02:21:00,
2013-12-18 21:31:00,63.9,56.2,30.14,SSW,213,0.0,0.0,76,0.00,,,0.01,0,Wunderground v.1.15,2013-12-19 02:31:00,
2013-12-18 21:40:00,63.5,56.2,30.14,SSW,213,0.0,0.0,77,0.00,,,0.01,0,Wunderground v.1.15,2013-12-19 02:40:00,
2013-12-18 21:46:00,63.4,56.1,30.14,SSW,213,0.0,0.0,77,0.00,,,0.01,0,Wunderground v.1.15,2013-12-19 02:46:00,
2013-12-18 21:51:00,63.2,56.2,30.14,SSW,213,0.0,0.0,78,0.00,,,0.01,0,Wunderground v.1.15,2013-12-19 02:51:00,
2013-12-18 21:56:00,63.1,56.1,30.14,SSW,213,0.0,0.0,78,0.00,,,0.01,0,Wunderground v.1.15,2013-12-19 02:56:00,
2013-12-18 22:05:00,62.7,56.1,30.14,SSW,213,0.0,0.0,79,0.00,,,0.01,0,Wunderground v.1.15,2013-12-19 03:05:00,
2013-12-18 22:10:00,62.6,56.0,30.14,SSW,213,0.0,0.0,79,0.00,,,0.01,0,Wunderground v.1.15,2013-12-19 03:10:00,
2013-12-18 22:16:00,62.4,55.8,30.14,SSW,202,0.0,0.0,79,0.00,,,0.01,0,Wunderground v.1.15,2013-12-19 03:16:00,
2013-12-18 22:21:00,62.4,56.1,30.14,SSW,202,0.0,0.0,80,0.00,,,0.01,0,Wunderground v.1.15,2013-12-19 03:21:00,
2013-12-18 22:26:00,62.3,56.0,30.14,SSW,202,0.0,0.0,80,0.00,,,0.01,0,Wunderground v.1.15,2013-12-19 03:26:00,
2013-12-18 22:31:00,62.1,55.9,30.14,SSW,202,0.0,0.0,80,0.00,,,0.01,0,Wunderground v.1.15,2013-12-19 03:31:00,
2013-12-18 22:40:00,62.0,55.8,30.14,SSW,202,0.0,0.0,80,0.00,,,0.01,0,Wunderground v.1.15,2013-12-19 03:40:00,
2013-12-18 22:45:00,62.0,55.8,30.14,SSW,202,0.0,0.0,80,0.00,,,0.01,0,Wunderground v.1.15,2013-12-19 03:45:00,
2013-12-18 22:51:00,61.8,55.6,30.14,SSW,196,0.0,0.0,80,0.00,,,0.01,0,Wunderground v.1.15,2013-12-19 03:51:00,
2013-12-18 22:56:00,61.8,55.9,30.14,SSW,202,0.0,0.0,81,0.00,,,0.01,0,Wunderground v.1.15,2013-12-19 03:56:00,
2013-12-18 23:01:00,61.6,55.7,30.14,SSW,202,0.0,0.0,81,0.00,,,0.01,0,Wunderground v.1.15,2013-12-19 04:01:00,
2013-12-18 23:11:00,61.6,55.7,30.14,SSW,202,0.0,0.0,81,0.00,,,0.01,0,Wunderground v.1.15,2013-12-19 04:11:00,
2013-12-18 23:20:00,61.5,56.0,30.14,SSW,202,0.0,0.0,82,0.00,,,0.01,0,Wunderground v.1.15,2013-12-19 04:20:00,
2013-12-18 23:25:00,61.5,56.0,30.14,SSW,202,0.0,0.0,82,0.00,,,0.01,0,Wunderground v.1.15,2013-12-19 04:25:00,
2013-12-18 23:30:00,61.3,55.8,30.14,SSW,202,0.0,0.0,82,0.00,,,0.01,0,Wunderground v.1.15,2013-12-19 04:30:00,
2013-12-18 23:36:00,61.3,56.1,30.14,SSW,202,0.0,0.0,83,0.00,,,0.01,0,Wunderground v.1.15,2013-12-19 04:36:00,
2013-12-18 23:41:00,61.2,56.0,30.14,SSW,202,0.0,0.0,83,0.00,,,0.01,0,Wunderground v.1.15,2013-12-19 04:41:00,
2013-12-18 23:46:00,61.2,56.0,30.14,SSW,202,0.0,0.0,83,0.00,,,0.01,0,Wunderground v.1.15,2013-12-19 04:46:00,
2013-12-18 23:51:00,61.2,56.0,30.14,SSW,202,0.0,0.0,83,0.00,,,0.01,0,Wunderground v.1.15,2013-12-19 04:51:00,
2013-12-18 23:56:00,61.0,55.8,30.14,SSW,202,0.0,0.0,83,0.00,,,0.01,0,Wunderground v.1.15,2013-12-19 04:56:00,